Terminal Aerodrome Forecast
Issued by NWS Upton, NY

Home | Current Version | Previous Version | Text Only | Print | Product List | Glossary On
Versions: 1 2 3 4 5 6 7 8 9 10 11 12 13 14 15 16 17 18 19 20 21 22 23 24 25 26 27 28 29 30 31 32 33 34 35 36 37 38 39 40 41 42
000
FTUS41 KOKX 252135 AAC
TAFEWR
TAF AMD
KEWR 252135Z 2522/2624 VRB06KT P6SM BKN070
     FM252300 25010KT P6SM BKN070
     FM260100 24007KT P6SM SCT070
     FM260400 27006KT P6SM SCT120
     FM261600 27011G18KT P6SM SCT050
     FM261800 24013G20KT P6SM SCT070=

USA.gov is the U.S. government's official web portal to all federal, state and local government web resources and services.